createdAt,value
2022-09-21T00:00:16.411Z,1010.45
2022-09-21T00:05:16.232Z,1010.58
2022-09-21T00:10:16.216Z,1010.51
2022-09-21T00:15:16.144Z,1010.58
2022-09-21T00:20:16.033Z,1010.47
2022-09-21T00:25:15.981Z,1010.53
2022-09-21T00:30:15.898Z,1010.53
2022-09-21T00:35:15.831Z,1010.59
2022-09-21T00:40:15.807Z,1010.57
2022-09-21T00:45:15.790Z,1010.62
2022-09-21T00:50:15.647Z,1010.57
2022-09-21T00:55:15.584Z,1010.56
2022-09-21T01:00:15.561Z,1010.64
2022-09-21T01:05:15.611Z,1010.65
2022-09-21T01:10:15.422Z,1010.62
2022-09-21T01:15:15.330Z,1010.63
2022-09-21T01:20:15.271Z,1010.69
2022-09-21T01:25:15.195Z,1010.67
2022-09-21T01:30:15.127Z,1010.64
2022-09-21T01:35:15.058Z,1010.67
2022-09-21T01:40:15.070Z,1010.74
2022-09-21T01:45:14.923Z,1010.78
2022-09-21T01:50:14.854Z,1010.83
2022-09-21T01:55:14.795Z,1010.81
2022-09-21T02:00:14.756Z,1010.90
2022-09-21T02:05:14.687Z,1010.92
2022-09-21T02:10:14.766Z,1010.86
2022-09-21T02:15:14.526Z,1010.93
2022-09-21T02:20:14.488Z,1010.93
2022-09-21T02:25:14.404Z,1010.93
2022-09-21T02:30:14.375Z,1010.93
2022-09-21T02:35:14.251Z,1010.94
2022-09-21T02:40:14.228Z,1011.06
2022-09-21T02:45:14.138Z,1011.01
2022-09-21T02:50:14.058Z,1011.09
2022-09-21T02:55:13.996Z,1011.05
2022-09-21T03:00:13.943Z,1011.08
2022-09-21T03:05:13.880Z,1011.07
2022-09-21T03:10:13.951Z,1011.24
2022-09-21T03:15:13.878Z,1011.22
2022-09-21T03:20:13.651Z,1011.28
2022-09-21T03:25:13.608Z,1011.21
2022-09-21T03:30:13.525Z,1011.19
2022-09-21T03:35:13.488Z,1011.27
2022-09-21T03:40:13.479Z,1011.28
2022-09-21T03:45:13.346Z,1011.24
2022-09-21T03:50:13.323Z,1011.30
2022-09-21T03:55:13.205Z,1011.33
2022-09-21T04:00:13.172Z,1011.30
2022-09-21T04:05:13.047Z,1011.34
2022-09-21T04:10:12.990Z,1011.28
2022-09-21T04:15:12.906Z,1011.33
2022-09-21T04:20:12.870Z,1011.34
2022-09-21T04:25:12.830Z,1011.39
2022-09-21T04:30:12.718Z,1011.52
2022-09-21T04:35:12.646Z,1011.52
2022-09-21T04:40:12.705Z,1011.49
2022-09-21T04:45:12.541Z,1011.54
2022-09-21T04:50:12.480Z,1011.54
2022-09-21T04:55:12.389Z,1011.58
2022-09-21T05:00:12.329Z,1011.71
2022-09-21T05:05:12.266Z,1011.73
2022-09-21T05:10:12.203Z,1011.75
2022-09-21T05:15:12.146Z,1011.87
2022-09-21T05:20:12.073Z,1011.92
2022-09-21T05:25:12.012Z,1012.00
2022-09-21T05:30:11.930Z,1012.01
2022-09-21T05:35:11.852Z,1012.13
2022-09-21T05:40:11.789Z,1012.05
2022-09-21T05:45:11.702Z,1012.13
2022-09-21T05:50:11.655Z,1012.22
2022-09-21T05:55:11.580Z,1012.28
2022-09-21T06:00:11.519Z,1012.21
2022-09-21T06:05:11.453Z,1012.29
2022-09-21T06:10:11.402Z,1012.23
2022-09-21T06:15:11.316Z,1012.28
2022-09-21T06:20:11.254Z,1012.35
2022-09-21T06:25:11.174Z,1012.19
2022-09-21T06:30:11.145Z,1012.36
2022-09-21T06:35:11.072Z,1012.29
2022-09-21T06:40:11.046Z,1012.35
2022-09-21T06:45:10.928Z,1012.24
2022-09-21T06:50:10.869Z,1012.28
2022-09-21T06:55:10.800Z,1012.28
2022-09-21T07:00:10.746Z,1012.29
2022-09-21T07:05:10.703Z,1012.48
2022-09-21T07:10:15.875Z,1012.48
2022-09-21T07:15:11.554Z,1012.52
2022-09-21T07:20:10.474Z,1012.51
2022-09-21T07:25:10.421Z,1012.59
2022-09-21T07:30:10.337Z,1012.54
2022-09-21T07:35:10.365Z,1012.51
2022-09-21T07:40:10.315Z,1012.64
2022-09-21T07:45:10.243Z,1012.61
2022-09-21T07:50:10.123Z,1012.61
2022-09-21T07:55:10.055Z,1012.68
2022-09-21T08:00:09.948Z,1012.67
2022-09-21T08:05:09.872Z,1012.70
2022-09-21T08:10:09.822Z,1012.66
2022-09-21T08:15:25.082Z,1012.63
2022-09-21T08:20:10.982Z,1012.66
2022-09-21T08:25:09.715Z,1012.67
2022-09-21T08:30:09.855Z,1012.65
2022-09-21T08:35:09.469Z,1012.68
2022-09-21T08:40:09.861Z,1012.57
2022-09-21T08:45:09.446Z,1012.57
2022-09-21T08:50:09.328Z,1012.63
2022-09-21T08:55:10.173Z,1012.66
2022-09-21T09:00:09.493Z,1012.68
2022-09-21T09:05:09.503Z,1012.68
2022-09-21T09:10:09.214Z,1012.67
2022-09-21T09:15:09.741Z,1012.65
2022-09-21T09:20:11.285Z,1012.64
2022-09-21T09:25:09.628Z,1012.57
2022-09-21T09:30:09.317Z,1012.56
2022-09-21T09:35:09.014Z,1012.49
2022-09-21T09:40:09.088Z,1012.46
2022-09-21T09:45:09.487Z,1012.54
2022-09-21T09:50:08.592Z,1012.43
2022-09-21T09:55:08.450Z,1012.54
2022-09-21T10:00:11.520Z,1012.56
2022-09-21T10:05:08.271Z,1012.48
2022-09-21T10:10:08.238Z,1012.39
2022-09-21T10:15:08.150Z,1012.36
2022-09-21T10:20:08.095Z,1012.40
2022-09-21T10:25:08.014Z,1012.38
2022-09-21T10:30:08.084Z,1012.25
2022-09-21T10:35:07.999Z,1012.17
2022-09-21T10:40:07.846Z,1012.39
2022-09-21T10:45:07.794Z,1012.32
2022-09-21T10:50:07.728Z,1012.31
2022-09-21T10:55:07.807Z,1012.36
2022-09-21T11:00:07.759Z,1012.17
2022-09-21T11:05:07.905Z,1012.25
2022-09-21T11:10:08.188Z,1012.14
2022-09-21T11:15:07.382Z,1012.15
2022-09-21T11:20:07.332Z,1012.05
2022-09-21T11:25:09.366Z,1012.11
2022-09-21T11:30:07.378Z,1012.10
2022-09-21T11:35:07.288Z,1012.16
2022-09-21T11:40:07.307Z,1012.15
2022-09-21T11:45:07.096Z,1012.06
2022-09-21T11:50:29.311Z,1012.08
2022-09-21T11:55:08.208Z,1011.89
2022-09-21T12:00:06.841Z,1011.95
2022-09-21T12:05:07.089Z,1011.88
2022-09-21T12:10:10.275Z,1011.88
2022-09-21T12:15:07.609Z,1011.85
2022-09-21T12:20:06.588Z,1011.78
2022-09-21T12:25:06.442Z,1011.81
2022-09-21T12:30:06.374Z,1011.67
2022-09-21T12:35:06.292Z,1011.58
2022-09-21T12:40:06.459Z,1011.56
2022-09-21T12:45:06.164Z,1011.62
2022-09-21T12:50:06.115Z,1011.56
2022-09-21T12:55:06.026Z,1011.67
2022-09-21T13:00:06.135Z,1011.64
2022-09-21T13:05:05.907Z,1011.54
2022-09-21T13:10:05.845Z,1011.53
2022-09-21T13:15:05.760Z,1011.49
2022-09-21T13:20:05.714Z,1011.54
2022-09-21T13:25:05.647Z,1011.45
2022-09-21T13:30:05.599Z,1011.44
2022-09-21T13:35:05.577Z,1011.34
2022-09-21T13:40:05.523Z,1011.50
2022-09-21T13:45:05.372Z,1011.44
2022-09-21T13:50:05.499Z,1011.35
2022-09-21T13:55:05.265Z,1011.25
2022-09-21T14:00:05.192Z,1011.21
2022-09-21T14:05:05.274Z,1011.16
2022-09-21T14:10:05.071Z,1011.21
2022-09-21T14:15:04.985Z,1011.25
2022-09-21T14:20:04.954Z,1011.19
2022-09-21T14:25:04.839Z,1011.23
2022-09-21T14:30:07.326Z,1011.30
2022-09-21T14:35:04.705Z,1011.36
2022-09-21T14:40:04.679Z,1011.44
2022-09-21T14:45:04.574Z,1011.39
2022-09-21T14:50:07.476Z,1011.43
2022-09-21T14:55:04.473Z,1011.38
2022-09-21T15:00:04.416Z,1011.32
2022-09-21T15:05:04.534Z,1011.26
2022-09-21T15:10:04.272Z,1011.37
2022-09-21T15:15:04.187Z,1011.29
2022-09-21T15:20:04.130Z,1011.20
2022-09-21T15:25:04.136Z,1011.28
2022-09-21T15:30:04.021Z,1011.27
2022-09-21T15:35:03.939Z,1011.26
2022-09-21T15:40:03.945Z,1011.14
2022-09-21T15:45:03.820Z,1011.14
2022-09-21T15:50:03.753Z,1011.24
2022-09-21T15:55:03.674Z,1011.16
2022-09-21T16:00:03.600Z,1011.08
2022-09-21T16:05:03.553Z,1011.13
2022-09-21T16:10:03.633Z,1011.09
2022-09-21T16:15:04.453Z,1011.12
2022-09-21T16:20:03.337Z,1011.27
2022-09-21T16:25:03.540Z,1011.16
2022-09-21T16:30:04.128Z,1011.24
2022-09-21T16:35:03.164Z,1011.28
2022-09-21T16:40:03.215Z,1011.26
2022-09-21T16:45:03.017Z,1011.35
2022-09-21T16:50:02.972Z,1011.33
2022-09-21T16:55:04.223Z,1011.33
2022-09-21T17:00:02.873Z,1011.29
2022-09-21T17:05:02.750Z,1011.32
2022-09-21T17:10:02.696Z,1011.48
2022-09-21T17:15:02.887Z,1011.36
2022-09-21T17:20:07.561Z,1011.37
2022-09-21T17:25:05.869Z,1011.40
2022-09-21T17:30:02.498Z,1011.41
2022-09-21T17:35:02.533Z,1011.47
2022-09-21T17:40:04.084Z,1011.44
2022-09-21T17:45:02.227Z,1011.51
2022-09-21T17:50:02.272Z,1011.57
2022-09-21T17:55:05.742Z,1011.53
2022-09-21T18:00:02.145Z,1011.61
2022-09-21T18:05:01.985Z,1011.62
2022-09-21T18:10:02.082Z,1011.62
2022-09-21T18:15:07.493Z,1011.58
2022-09-21T18:20:02.966Z,1011.64
2022-09-21T18:25:01.733Z,1011.62
2022-09-21T18:30:01.644Z,1011.70
2022-09-21T18:35:01.628Z,1011.73
2022-09-21T18:40:01.613Z,1011.73
2022-09-21T18:45:01.451Z,1011.84
2022-09-21T18:50:01.583Z,1011.84
2022-09-21T18:55:01.499Z,1011.81
2022-09-21T19:00:01.342Z,1011.75
2022-09-21T19:05:10.834Z,1011.78
2022-09-21T19:10:01.088Z,1011.78
2022-09-21T19:15:01.036Z,1011.77
2022-09-21T19:20:00.997Z,1011.86
2022-09-21T19:25:00.978Z,1011.76
2022-09-21T19:30:02.095Z,1011.84
2022-09-21T19:35:01.795Z,1011.90
2022-09-21T19:40:00.822Z,1011.85
2022-09-21T19:45:01.417Z,1011.88
2022-09-21T19:50:00.645Z,1011.84
2022-09-21T19:55:00.486Z,1011.75
2022-09-21T20:00:00.426Z,1011.92
2022-09-21T20:05:00.400Z,1011.82
2022-09-21T20:10:00.304Z,1011.83
2022-09-21T20:15:00.294Z,1011.82
2022-09-21T20:20:00.220Z,1011.88
2022-09-21T20:25:00.138Z,1011.89
2022-09-21T20:30:01.939Z,1011.78
2022-09-21T20:35:00.105Z,1011.78
2022-09-21T20:40:16.097Z,1011.79
2022-09-21T20:44:59.828Z,1011.82
2022-09-21T20:49:59.810Z,1011.76
2022-09-21T20:54:59.742Z,1011.78
2022-09-21T21:00:07.099Z,1011.70
2022-09-21T21:05:21.222Z,1011.80
2022-09-21T21:10:21.088Z,1011.73
2022-09-21T21:15:20.559Z,1011.79
2022-09-21T21:20:20.544Z,1011.80
2022-09-21T21:25:00.502Z,1011.73
2022-09-21T21:29:59.240Z,1011.71
2022-09-21T21:34:59.343Z,1011.69
2022-09-21T21:39:59.124Z,1011.69
2022-09-21T21:44:59.069Z,1011.59
2022-09-21T21:49:58.951Z,1011.57
2022-09-21T21:54:58.878Z,1011.66
2022-09-21T21:59:58.831Z,1011.55
2022-09-21T22:04:58.758Z,1011.57
2022-09-21T22:09:58.732Z,1011.45
2022-09-21T22:14:58.654Z,1011.58
2022-09-21T22:19:58.568Z,1011.59
2022-09-21T22:24:58.512Z,1011.47
2022-09-21T22:29:58.433Z,1011.38
2022-09-21T22:34:58.364Z,1011.49
2022-09-21T22:39:58.306Z,1011.45
2022-09-21T22:44:58.243Z,1011.48
2022-09-21T22:49:58.165Z,1011.51
2022-09-21T22:54:58.090Z,1011.36
2022-09-21T22:59:58.021Z,1011.38
2022-09-21T23:04:57.949Z,1011.50
2022-09-21T23:09:57.886Z,1011.41
2022-09-21T23:14:57.826Z,1011.49
2022-09-21T23:19:57.768Z,1011.53
2022-09-21T23:24:57.692Z,1011.63
2022-09-21T23:29:57.700Z,1011.48
2022-09-21T23:34:57.552Z,1011.44
2022-09-21T23:39:57.495Z,1011.45
2022-09-21T23:44:57.486Z,1011.52
2022-09-21T23:49:57.386Z,1011.53
2022-09-21T23:54:57.303Z,1011.45
2022-09-21T23:59:57.237Z,1011.38
